createdAt,value
2019-04-07T00:00:45.432Z,9.90
2019-04-07T00:03:13.795Z,10.00
2019-04-07T00:05:42.570Z,10.10
2019-04-07T00:08:11.179Z,10.10
2019-04-07T00:10:39.085Z,10.10
2019-04-07T00:13:07.167Z,10.00
2019-04-07T00:15:35.352Z,9.90
2019-04-07T00:18:04.355Z,9.90
2019-04-07T00:20:33.352Z,10.00
2019-04-07T00:23:01.230Z,9.80
2019-04-07T00:25:29.975Z,9.80
2019-04-07T00:27:58.561Z,9.70
2019-04-07T00:30:26.683Z,9.80
2019-04-07T00:32:54.785Z,9.70
2019-04-07T00:35:30.434Z,9.80
2019-04-07T00:37:53.831Z,9.60
2019-04-07T00:40:22.398Z,9.60
2019-04-07T00:42:50.397Z,9.70
2019-04-07T00:45:18.449Z,9.50
2019-04-07T00:47:47.115Z,9.50
2019-04-07T00:50:16.155Z,9.60
2019-04-07T00:52:44.871Z,9.50
2019-04-07T00:55:13.139Z,9.50
2019-04-07T00:57:40.979Z,9.40
2019-04-07T01:00:10.608Z,9.40
2019-04-07T01:02:38.848Z,9.40
2019-04-07T01:05:07.290Z,9.20
2019-04-07T01:07:35.602Z,9.10
2019-04-07T01:10:05.063Z,9.30
2019-04-07T01:12:33.590Z,9.30
2019-04-07T01:15:02.260Z,9.30
2019-04-07T01:17:30.331Z,9.20
2019-04-07T01:19:58.665Z,9.40
2019-04-07T01:22:26.624Z,9.30
2019-04-07T01:24:54.829Z,9.20
2019-04-07T01:27:22.891Z,9.30
2019-04-07T01:29:50.849Z,9.30
2019-04-07T01:32:19.217Z,9.30
2019-04-07T01:34:47.082Z,9.30
2019-04-07T01:37:15.316Z,9.40
2019-04-07T01:39:43.875Z,9.30
2019-04-07T01:42:37.594Z,9.30
2019-04-07T01:45:16.896Z,9.30
2019-04-07T01:48:01.221Z,9.20
2019-04-07T01:50:39.076Z,9.20
2019-04-07T01:53:14.856Z,9.20
2019-04-07T01:56:02.936Z,9.30
2019-04-07T01:58:39.552Z,9.30
2019-04-07T02:01:23.499Z,9.20
2019-04-07T02:04:11.499Z,9.10
2019-04-07T02:06:59.359Z,9.20
2019-04-07T02:09:49.543Z,9.20
2019-04-07T02:12:35.625Z,9.20
2019-04-07T02:15:22.844Z,9.10
2019-04-07T02:18:09.637Z,9.00
2019-04-07T02:20:55.367Z,9.10
2019-04-07T02:23:42.847Z,9.20
2019-04-07T02:26:24.427Z,9.30
2019-04-07T02:29:12.588Z,9.40
2019-04-07T02:32:06.172Z,9.40
2019-04-07T02:34:40.125Z,9.70
2019-04-07T02:37:20.581Z,9.80
2019-04-07T02:40:21.399Z,9.80
2019-04-07T02:43:03.334Z,9.80
2019-04-07T02:45:43.163Z,9.70
2019-04-07T02:48:29.527Z,9.60
2019-04-07T02:51:22.897Z,9.60
2019-04-07T02:54:10.548Z,9.50
2019-04-07T02:57:02.427Z,9.70
2019-04-07T02:59:51.414Z,9.50
2019-04-07T03:02:37.860Z,9.30
2019-04-07T03:05:16.483Z,9.20
2019-04-07T03:07:57.477Z,9.30
2019-04-07T03:10:49.724Z,9.40
2019-04-07T03:13:24.506Z,9.60
2019-04-07T03:16:31.455Z,9.60
2019-04-07T03:19:22.190Z,9.40
2019-04-07T03:22:02.851Z,9.20
2019-04-07T03:25:05.595Z,9.10
2019-04-07T03:28:06.797Z,9.00
2019-04-07T03:31:01.851Z,8.90
2019-04-07T03:33:56.522Z,8.80
2019-04-07T03:37:11.684Z,8.70
2019-04-07T03:39:35.604Z,8.60
2019-04-07T03:42:12.531Z,8.60
2019-04-07T03:45:06.178Z,8.50
2019-04-07T03:47:44.066Z,8.40
2019-04-07T03:50:25.230Z,8.30
2019-04-07T03:53:22.259Z,8.50
2019-04-07T03:56:13.491Z,8.40
2019-04-07T03:58:58.414Z,8.40
2019-04-07T04:02:01.235Z,8.50
2019-04-07T04:04:46.534Z,8.50
2019-04-07T04:07:36.923Z,8.60
2019-04-07T04:10:10.221Z,8.60
2019-04-07T04:13:05.047Z,8.60
2019-04-07T04:15:46.897Z,8.60
2019-04-07T04:18:14.924Z,8.60
2019-04-07T04:20:44.357Z,8.60
2019-04-07T04:23:12.871Z,8.70
2019-04-07T04:25:41.080Z,8.70
2019-04-07T04:28:09.241Z,8.60
2019-04-07T04:30:37.279Z,8.60
2019-04-07T04:33:06.261Z,8.50
2019-04-07T04:35:34.611Z,8.40
2019-04-07T04:38:02.614Z,8.50
2019-04-07T04:40:30.570Z,8.50
2019-04-07T04:42:58.489Z,8.40
2019-04-07T04:45:26.403Z,8.40
2019-04-07T04:47:54.388Z,8.30
2019-04-07T04:50:23.500Z,8.40
2019-04-07T04:52:52.289Z,8.40
2019-04-07T04:55:20.448Z,8.50
2019-04-07T04:57:48.702Z,8.50
2019-04-07T05:00:16.543Z,8.60
2019-04-07T05:02:45.625Z,8.50
2019-04-07T05:05:13.916Z,8.50
2019-04-07T05:07:54.933Z,8.50
2019-04-07T05:10:12.178Z,8.30
2019-04-07T05:12:40.363Z,8.30
2019-04-07T05:15:08.581Z,8.40
2019-04-07T05:17:36.951Z,8.50
2019-04-07T05:20:05.902Z,8.50
2019-04-07T05:22:33.824Z,8.60
2019-04-07T05:25:02.313Z,8.50
2019-04-07T05:27:30.815Z,8.50
2019-04-07T05:29:58.850Z,8.80
2019-04-07T05:32:27.396Z,8.90
2019-04-07T05:34:55.792Z,8.90
2019-04-07T05:37:24.171Z,8.90
2019-04-07T05:39:52.683Z,8.90
2019-04-07T05:42:20.531Z,9.00
2019-04-07T05:44:48.624Z,9.10
2019-04-07T05:47:16.545Z,9.00
2019-04-07T05:49:44.622Z,9.10
2019-04-07T05:52:12.794Z,9.20
2019-04-07T05:54:41.109Z,9.20
2019-04-07T05:57:09.756Z,9.30
2019-04-07T05:59:39.929Z,9.30
2019-04-07T06:02:08.077Z,9.50
2019-04-07T06:04:36.110Z,9.70
2019-04-07T06:07:04.609Z,9.90
2019-04-07T06:09:33.760Z,10.10
2019-04-07T06:12:05.954Z,10.30
2019-04-07T06:14:32.361Z,10.50
2019-04-07T06:17:00.911Z,10.60
2019-04-07T06:19:29.390Z,10.60
2019-04-07T06:21:59.338Z,10.60
2019-04-07T06:24:31.664Z,10.50
2019-04-07T06:26:57.565Z,10.40
2019-04-07T06:29:26.516Z,10.50
2019-04-07T06:31:54.932Z,10.60
2019-04-07T06:34:23.744Z,10.50
2019-04-07T06:36:54.772Z,10.50
2019-04-07T06:39:21.616Z,10.60
2019-04-07T06:41:49.612Z,10.70
2019-04-07T06:44:20.950Z,10.60
2019-04-07T06:47:08.567Z,10.60
2019-04-07T06:49:53.163Z,10.60
2019-04-07T06:52:32.186Z,10.70
2019-04-07T06:55:33.025Z,10.80
2019-04-07T06:58:19.960Z,11.10
2019-04-07T07:01:13.467Z,11.50
2019-04-07T07:04:13.971Z,11.50
2019-04-07T07:07:02.356Z,11.60
2019-04-07T07:09:54.822Z,11.80
2019-04-07T07:12:48.766Z,11.90
2019-04-07T07:15:37.163Z,12.00
2019-04-07T07:18:20.004Z,12.10
2019-04-07T07:21:05.028Z,12.40
2019-04-07T07:23:38.585Z,12.40
2019-04-07T07:26:07.088Z,12.60
2019-04-07T07:28:35.926Z,12.50
2019-04-07T07:31:05.401Z,12.40
2019-04-07T07:33:33.583Z,12.60
2019-04-07T07:36:02.350Z,12.60
2019-04-07T07:38:32.459Z,12.70
2019-04-07T07:41:02.299Z,13.10
2019-04-07T07:43:30.289Z,13.20
2019-04-07T07:45:59.047Z,13.30
2019-04-07T07:48:28.371Z,12.80
2019-04-07T07:50:56.496Z,13.10
2019-04-07T07:53:27.074Z,13.10
2019-04-07T07:55:55.422Z,13.10
2019-04-07T07:58:23.671Z,13.10
2019-04-07T08:00:52.496Z,13.20
2019-04-07T08:03:22.861Z,13.10
2019-04-07T08:05:51.229Z,12.80
2019-04-07T08:08:20.039Z,13.00
2019-04-07T08:10:48.450Z,13.40
2019-04-07T08:13:16.860Z,13.40
2019-04-07T08:15:45.838Z,13.50
2019-04-07T08:18:13.872Z,13.30
2019-04-07T08:20:44.930Z,13.40
2019-04-07T08:23:12.538Z,13.70
2019-04-07T08:25:41.291Z,13.90
2019-04-07T08:28:09.821Z,13.70
2019-04-07T08:30:38.274Z,13.60
2019-04-07T08:33:07.255Z,13.90
2019-04-07T08:35:38.131Z,14.30
2019-04-07T08:38:05.728Z,13.80
2019-04-07T08:40:36.536Z,13.80
2019-04-07T08:43:04.077Z,14.20
2019-04-07T08:45:32.807Z,14.70
2019-04-07T08:48:01.070Z,15.00
2019-04-07T08:50:29.834Z,14.80
2019-04-07T08:52:58.049Z,14.80
2019-04-07T08:55:26.045Z,14.90
2019-04-07T08:57:53.975Z,15.30
2019-04-07T09:00:24.884Z,15.10
2019-04-07T09:03:02.400Z,15.00
2019-04-07T09:05:27.699Z,15.10
2019-04-07T09:07:54.018Z,15.40
2019-04-07T09:10:34.505Z,15.60
2019-04-07T09:13:04.831Z,15.30
2019-04-07T09:15:53.370Z,15.30
2019-04-07T09:18:28.938Z,15.70
2019-04-07T09:21:35.497Z,15.60
2019-04-07T09:24:24.923Z,16.10
2019-04-07T09:27:16.982Z,16.20
2019-04-07T09:29:53.448Z,15.90
2019-04-07T09:32:32.371Z,15.60
2019-04-07T09:35:12.316Z,16.00
2019-04-07T09:38:00.456Z,16.00
2019-04-07T09:40:42.327Z,16.10
2019-04-07T09:43:30.257Z,16.50
2019-04-07T09:46:32.334Z,16.90
2019-04-07T09:49:32.396Z,17.10
2019-04-07T09:52:10.386Z,17.30
2019-04-07T09:55:02.867Z,17.60
2019-04-07T09:57:41.844Z,17.80
2019-04-07T10:00:16.013Z,17.90
2019-04-07T10:03:07.733Z,18.00
2019-04-07T10:06:05.398Z,18.00
2019-04-07T10:08:58.906Z,18.10
2019-04-07T10:11:43.936Z,18.30
2019-04-07T10:14:49.919Z,18.50
2019-04-07T10:17:47.041Z,18.50
2019-04-07T10:20:34.833Z,18.40
2019-04-07T10:23:11.200Z,18.50
2019-04-07T10:25:56.112Z,18.70
2019-04-07T10:28:32.263Z,18.80
2019-04-07T10:31:20.761Z,18.80
2019-04-07T10:34:33.876Z,18.70
2019-04-07T10:37:25.495Z,18.70
2019-04-07T10:40:25.539Z,18.90
2019-04-07T10:43:07.066Z,19.10
2019-04-07T10:46:06.948Z,19.00
2019-04-07T10:49:00.382Z,18.90
2019-04-07T10:51:53.482Z,19.00
2019-04-07T10:54:43.871Z,19.20
2019-04-07T10:57:35.417Z,19.50
2019-04-07T11:00:46.507Z,19.00
2019-04-07T11:03:48.683Z,18.70
2019-04-07T11:06:36.557Z,18.40
2019-04-07T11:09:26.650Z,18.40
2019-04-07T11:12:30.989Z,18.40
2019-04-07T11:15:34.111Z,18.30
2019-04-07T11:18:12.346Z,18.20
2019-04-07T11:20:58.460Z,18.30
2019-04-07T11:23:33.253Z,18.40
2019-04-07T11:26:11.289Z,18.20
2019-04-07T11:28:48.054Z,17.90
2019-04-07T11:31:29.160Z,17.80
2019-04-07T11:34:01.613Z,17.60
2019-04-07T11:36:52.851Z,17.70
2019-04-07T11:39:46.435Z,17.90
2019-04-07T11:42:37.042Z,17.90
2019-04-07T11:45:26.972Z,18.00
2019-04-07T11:48:10.793Z,18.40
2019-04-07T11:50:53.038Z,19.00
2019-04-07T11:53:46.593Z,19.10
2019-04-07T11:56:40.167Z,19.40
2019-04-07T11:59:18.039Z,20.00
2019-04-07T12:02:07.575Z,20.00
2019-04-07T12:04:46.863Z,20.00
2019-04-07T12:07:23.219Z,19.80
2019-04-07T12:10:10.132Z,19.40
2019-04-07T12:12:45.093Z,19.40
2019-04-07T12:15:29.993Z,19.70
2019-04-07T12:18:18.866Z,20.00
2019-04-07T12:20:55.244Z,20.10
2019-04-07T12:24:01.538Z,20.10
2019-04-07T12:26:47.295Z,20.30
2019-04-07T12:29:34.236Z,19.90
2019-04-07T12:32:20.336Z,19.80
2019-04-07T12:35:07.360Z,19.70
2019-04-07T12:37:57.958Z,19.60
2019-04-07T12:41:14.276Z,19.40
2019-04-07T12:43:54.021Z,19.40
2019-04-07T12:46:36.449Z,19.30
2019-04-07T12:49:18.894Z,19.20
2019-04-07T12:52:05.513Z,19.20
2019-04-07T12:54:46.028Z,18.50
2019-04-07T12:57:25.251Z,18.30
2019-04-07T13:00:12.482Z,18.40
2019-04-07T13:02:56.659Z,18.20
2019-04-07T13:05:50.928Z,18.30
2019-04-07T13:08:49.043Z,18.50
2019-04-07T13:11:50.358Z,18.70
2019-04-07T13:14:56.128Z,18.60
2019-04-07T13:17:48.473Z,18.60
2019-04-07T13:20:39.743Z,18.90
2019-04-07T13:23:31.499Z,18.60
2019-04-07T13:26:16.441Z,18.50
2019-04-07T13:28:50.070Z,18.50
2019-04-07T13:31:45.990Z,18.70
2019-04-07T13:34:33.525Z,18.70
2019-04-07T13:37:12.353Z,19.00
2019-04-07T13:39:58.896Z,19.20
2019-04-07T13:42:49.862Z,19.30
2019-04-07T13:45:36.054Z,19.90
2019-04-07T13:48:33.380Z,20.30
2019-04-07T13:51:24.557Z,20.10
2019-04-07T13:54:11.092Z,20.00
2019-04-07T13:56:57.936Z,20.00
2019-04-07T13:59:39.995Z,19.90
2019-04-07T14:02:34.209Z,19.80
2019-04-07T14:05:11.061Z,19.70
2019-04-07T14:08:03.979Z,19.70
2019-04-07T14:10:55.011Z,19.80
2019-04-07T14:13:42.703Z,19.80
2019-04-07T14:16:17.543Z,19.70
2019-04-07T14:19:01.339Z,19.70
2019-04-07T14:21:41.096Z,19.50
2019-04-07T14:24:16.818Z,19.40
2019-04-07T14:26:54.193Z,19.20
2019-04-07T14:30:00.401Z,19.10
2019-04-07T14:32:49.812Z,19.00
2019-04-07T14:35:36.939Z,18.80
2019-04-07T14:38:20.109Z,18.80
2019-04-07T14:41:16.537Z,18.80
2019-04-07T14:43:56.534Z,18.60
2019-04-07T14:46:43.704Z,18.70
2019-04-07T14:49:27.376Z,19.00
2019-04-07T14:52:05.731Z,19.50
2019-04-07T14:54:56.569Z,19.80
2019-04-07T14:57:40.645Z,19.80
2019-04-07T15:00:37.637Z,19.70
2019-04-07T15:03:07.332Z,19.70
2019-04-07T15:05:38.831Z,19.50
2019-04-07T15:08:16.306Z,19.20
2019-04-07T15:10:50.206Z,19.00
2019-04-07T15:13:23.960Z,18.70
2019-04-07T15:15:51.671Z,18.60
2019-04-07T15:18:21.550Z,18.50
2019-04-07T15:20:50.547Z,18.40
2019-04-07T15:23:19.855Z,18.30
2019-04-07T15:25:47.893Z,18.30
2019-04-07T15:28:16.195Z,18.30
2019-04-07T15:30:47.977Z,18.20
2019-04-07T15:33:14.662Z,18.10
2019-04-07T15:35:47.864Z,18.10
2019-04-07T15:38:14.218Z,18.00
2019-04-07T15:40:42.780Z,18.00
2019-04-07T15:43:12.299Z,17.90
2019-04-07T15:45:42.669Z,17.90
2019-04-07T15:48:10.848Z,17.90
2019-04-07T15:50:39.568Z,17.90
2019-04-07T15:53:07.979Z,17.90
2019-04-07T15:55:45.932Z,17.80
2019-04-07T15:58:05.743Z,17.90
2019-04-07T16:00:35.265Z,17.90
2019-04-07T16:03:04.190Z,17.90
2019-04-07T16:05:39.964Z,17.90
2019-04-07T16:08:02.610Z,17.80
2019-04-07T16:10:31.304Z,17.70
2019-04-07T16:12:59.784Z,17.60
2019-04-07T16:15:28.191Z,17.70
2019-04-07T16:17:57.232Z,17.70
2019-04-07T16:20:31.628Z,17.60
2019-04-07T16:22:56.382Z,17.60
2019-04-07T16:25:27.559Z,17.50
2019-04-07T16:27:54.637Z,17.40
2019-04-07T16:30:23.431Z,17.40
2019-04-07T16:32:52.390Z,17.40
2019-04-07T16:35:21.186Z,17.40
2019-04-07T16:37:49.208Z,17.40
2019-04-07T16:40:17.264Z,17.40
2019-04-07T16:43:00.436Z,17.40
2019-04-07T16:45:17.782Z,17.30
2019-04-07T16:47:45.607Z,17.30
2019-04-07T16:50:18.163Z,17.30
2019-04-07T16:52:44.729Z,17.30
2019-04-07T16:55:39.901Z,17.30
2019-04-07T16:58:09.615Z,17.20
2019-04-07T17:00:38.430Z,17.20
2019-04-07T17:03:08.321Z,17.30
2019-04-07T17:05:37.279Z,17.40
2019-04-07T17:08:05.991Z,17.40
2019-04-07T17:10:35.436Z,17.20
2019-04-07T17:13:14.639Z,17.20
2019-04-07T17:15:37.354Z,17.00
2019-04-07T17:18:08.555Z,17.00
2019-04-07T17:20:38.160Z,16.80
2019-04-07T17:23:07.107Z,16.70
2019-04-07T17:25:36.152Z,16.60
2019-04-07T17:28:06.257Z,16.50
2019-04-07T17:30:35.932Z,16.60
2019-04-07T17:33:05.226Z,16.60
2019-04-07T17:35:35.564Z,16.60
2019-04-07T17:38:06.780Z,16.50
2019-04-07T17:40:43.284Z,16.40
2019-04-07T17:43:30.162Z,16.20
2019-04-07T17:46:16.674Z,16.00
2019-04-07T17:49:06.657Z,15.90
2019-04-07T17:51:48.054Z,15.70
2019-04-07T17:54:34.904Z,15.70
2019-04-07T17:57:25.815Z,15.70
2019-04-07T18:00:01.406Z,15.90
2019-04-07T18:02:54.932Z,15.80
2019-04-07T18:05:41.081Z,15.70
2019-04-07T18:08:20.264Z,15.50
2019-04-07T18:11:06.421Z,15.60
2019-04-07T18:14:06.230Z,15.50
2019-04-07T18:17:02.420Z,15.40
2019-04-07T18:19:59.644Z,15.20
2019-04-07T18:22:47.577Z,15.50
2019-04-07T18:25:44.601Z,15.30
2019-04-07T18:28:30.522Z,15.40
2019-04-07T18:31:08.102Z,15.40
2019-04-07T18:33:55.851Z,15.30
2019-04-07T18:36:36.760Z,15.30
2019-04-07T18:39:30.465Z,15.20
2019-04-07T18:42:10.309Z,15.10
2019-04-07T18:44:42.570Z,15.20
2019-04-07T18:47:37.004Z,15.30
2019-04-07T18:50:29.324Z,15.20
2019-04-07T18:53:11.004Z,15.30
2019-04-07T18:56:01.544Z,15.20
2019-04-07T18:58:55.816Z,15.10
2019-04-07T19:01:46.897Z,15.20
2019-04-07T19:04:41.358Z,15.00
2019-04-07T19:07:38.059Z,15.00
2019-04-07T19:10:25.439Z,14.80
2019-04-07T19:13:13.366Z,14.90
2019-04-07T19:15:47.183Z,14.80
2019-04-07T19:18:40.220Z,14.70
2019-04-07T19:21:28.042Z,14.60
2019-04-07T19:24:16.423Z,14.50
2019-04-07T19:27:15.300Z,14.30
2019-04-07T19:29:55.296Z,14.40
2019-04-07T19:32:41.732Z,14.40
2019-04-07T19:35:30.342Z,14.30
2019-04-07T19:38:23.326Z,14.20
2019-04-07T19:41:08.904Z,14.10
2019-04-07T19:43:44.643Z,13.90
2019-04-07T19:46:26.477Z,13.90
2019-04-07T19:49:27.861Z,13.90
2019-04-07T19:52:14.315Z,13.90
2019-04-07T19:54:51.401Z,13.80
2019-04-07T19:57:34.277Z,13.80
2019-04-07T20:00:30.841Z,13.80
2019-04-07T20:03:28.381Z,13.80
2019-04-07T20:06:22.354Z,13.80
2019-04-07T20:09:05.082Z,13.70
2019-04-07T20:11:51.453Z,13.70
2019-04-07T20:14:58.913Z,13.70
2019-04-07T20:17:38.805Z,13.50
2019-04-07T20:20:20.118Z,13.40
2019-04-07T20:23:06.463Z,13.40
2019-04-07T20:25:48.057Z,13.30
2019-04-07T20:28:46.476Z,13.20
2019-04-07T20:31:27.897Z,13.10
2019-04-07T20:34:03.933Z,13.00
2019-04-07T20:36:59.620Z,12.90
2019-04-07T20:39:46.280Z,12.90
2019-04-07T20:42:34.743Z,12.80
2019-04-07T20:45:23.988Z,12.70
2019-04-07T20:48:19.819Z,12.60
2019-04-07T20:51:08.366Z,12.50
2019-04-07T20:53:55.644Z,12.50
2019-04-07T20:56:47.527Z,12.50
2019-04-07T20:59:48.603Z,12.40
2019-04-07T21:02:27.766Z,12.20
2019-04-07T21:05:18.643Z,12.10
2019-04-07T21:08:01.599Z,12.10
2019-04-07T21:11:07.661Z,12.10
2019-04-07T21:14:04.584Z,12.00
2019-04-07T21:16:51.028Z,11.80
2019-04-07T21:19:42.261Z,11.90
2019-04-07T21:22:43.309Z,11.80
2019-04-07T21:25:28.239Z,11.80
2019-04-07T21:28:06.261Z,11.80
2019-04-07T21:30:48.484Z,11.70
2019-04-07T21:33:45.269Z,11.60
2019-04-07T21:36:28.035Z,11.60
2019-04-07T21:39:07.861Z,11.60
2019-04-07T21:41:49.965Z,11.60
2019-04-07T21:44:27.046Z,11.60
2019-04-07T21:47:20.547Z,11.50
2019-04-07T21:50:10.010Z,11.60
2019-04-07T21:52:45.087Z,11.50
2019-04-07T21:55:32.980Z,11.50
2019-04-07T21:58:19.587Z,11.60
2019-04-07T22:01:13.373Z,11.60
2019-04-07T22:03:56.668Z,11.60
2019-04-07T22:06:44.639Z,11.60
2019-04-07T22:09:19.686Z,11.50
2019-04-07T22:11:49.442Z,11.60
2019-04-07T22:14:18.715Z,11.60
2019-04-07T22:16:47.150Z,11.50
2019-04-07T22:19:16.366Z,11.50
2019-04-07T22:21:45.239Z,11.40
2019-04-07T22:24:13.538Z,11.40
2019-04-07T22:26:45.935Z,11.40
2019-04-07T22:29:11.923Z,11.40
2019-04-07T22:31:47.830Z,11.40
2019-04-07T22:34:16.605Z,11.40
2019-04-07T22:36:47.021Z,11.30
2019-04-07T22:39:14.552Z,11.20
2019-04-07T22:41:44.192Z,11.10
2019-04-07T22:44:12.268Z,11.20
2019-04-07T22:46:41.654Z,11.20
2019-04-07T22:49:09.794Z,11.20
2019-04-07T22:51:38.177Z,11.20
2019-04-07T22:54:06.160Z,11.10
2019-04-07T22:56:36.583Z,11.10
2019-04-07T22:59:04.153Z,11.00
2019-04-07T23:01:33.374Z,11.00
2019-04-07T23:04:02.210Z,11.10
2019-04-07T23:06:31.387Z,11.00
2019-04-07T23:08:59.693Z,11.00
2019-04-07T23:11:27.892Z,10.90
2019-04-07T23:13:55.842Z,11.00
2019-04-07T23:16:24.035Z,11.00
2019-04-07T23:18:52.125Z,10.90
2019-04-07T23:21:20.191Z,10.80
2019-04-07T23:23:48.359Z,10.90
2019-04-07T23:26:16.323Z,10.70
2019-04-07T23:28:44.417Z,10.90
2019-04-07T23:31:12.493Z,10.80
2019-04-07T23:33:41.741Z,10.70
2019-04-07T23:36:10.208Z,10.80
2019-04-07T23:38:39.007Z,10.80
2019-04-07T23:41:07.277Z,10.80
2019-04-07T23:43:35.560Z,10.80
2019-04-07T23:46:05.013Z,10.80
2019-04-07T23:48:33.015Z,10.90
2019-04-07T23:51:01.706Z,10.90
2019-04-07T23:54:07.545Z,10.90
2019-04-07T23:56:36.554Z,10.90
2019-04-07T23:59:06.153Z,10.90
